createdAt,value
2023-02-18T00:00:23.105Z,98664.39
2023-02-18T00:03:28.872Z,98651.19
2023-02-18T00:06:38.846Z,98642.83
2023-02-18T00:09:54.790Z,98633.30
2023-02-18T00:13:01.440Z,98618.71
2023-02-18T00:16:14.321Z,98613.20
2023-02-18T00:19:24.404Z,98614.59
2023-02-18T00:22:30.319Z,98603.66
2023-02-18T00:25:34.611Z,98593.39
2023-02-18T00:28:42.918Z,98579.09
2023-02-18T00:31:48.665Z,98568.09
2023-02-18T00:34:52.519Z,98559.10
2023-02-18T00:37:56.639Z,98538.86
2023-02-18T00:41:02.056Z,98537.91
2023-02-18T00:44:07.750Z,98524.05
2023-02-18T00:47:12.737Z,98514.55
2023-02-18T00:50:18.460Z,98507.88
2023-02-18T00:53:23.842Z,98494.16
2023-02-18T00:56:29.092Z,98488.05
2023-02-18T00:59:32.636Z,98478.66
2023-02-18T01:02:39.009Z,98464.11
2023-02-18T01:05:42.321Z,98457.37
2023-02-18T01:08:49.773Z,98442.90
2023-02-18T01:11:52.108Z,98436.05
2023-02-18T01:14:59.227Z,98426.99
2023-02-18T01:18:03.736Z,98418.82
2023-02-18T01:21:10.623Z,98407.20
2023-02-18T01:24:14.882Z,98402.05
2023-02-18T01:27:19.228Z,98386.17
2023-02-18T01:30:23.788Z,98376.53
2023-02-18T01:33:28.628Z,98365.27
2023-02-18T01:36:34.560Z,98360.10
2023-02-18T01:39:40.794Z,98345.16
2023-02-18T01:42:43.890Z,98342.09
2023-02-18T01:46:10.150Z,98329.60
2023-02-18T01:49:20.599Z,98320.62
2023-02-18T01:52:27.480Z,98317.02
2023-02-18T01:55:31.796Z,98309.61
2023-02-18T01:58:38.821Z,98299.83
2023-02-18T02:01:46.289Z,98296.83
2023-02-18T02:04:52.292Z,98289.83
2023-02-18T02:07:56.931Z,98285.00
2023-02-18T02:11:20.245Z,98273.34
2023-02-18T02:15:01.677Z,98266.51
2023-02-18T02:18:31.119Z,98254.66
2023-02-18T02:22:04.861Z,98242.48
2023-02-18T02:25:38.288Z,98234.35
2023-02-18T02:28:59.577Z,98216.00
2023-02-18T02:32:35.122Z,98211.33
2023-02-18T02:35:54.179Z,98196.92
2023-02-18T02:39:21.115Z,98192.78
2023-02-18T02:42:49.574Z,98188.31
2023-02-18T02:46:19.514Z,98178.82
2023-02-18T02:49:41.576Z,98172.70
2023-02-18T02:52:57.306Z,98165.58
2023-02-18T02:56:00.800Z,98159.23
2023-02-18T02:59:08.086Z,98149.77
2023-02-18T03:03:06.455Z,98138.85
2023-02-18T03:06:34.306Z,98138.44
2023-02-18T03:09:54.631Z,98129.95
2023-02-18T03:13:25.829Z,98131.28
2023-02-18T03:16:51.658Z,98124.58
2023-02-18T03:20:37.337Z,98118.02
2023-02-18T03:23:49.203Z,98101.13
2023-02-18T03:27:04.311Z,98102.85
2023-02-18T03:30:17.618Z,98092.23
2023-02-18T03:34:03.085Z,98082.88
2023-02-18T03:37:07.293Z,98079.41
2023-02-18T03:40:15.793Z,98076.10
2023-02-18T03:43:19.386Z,98067.23
2023-02-18T03:46:23.027Z,98056.10
2023-02-18T03:49:26.773Z,98051.05
2023-02-18T03:52:29.711Z,98042.55
2023-02-18T03:58:56.082Z,98017.42
2023-02-18T04:01:59.533Z,98014.20
2023-02-18T04:05:05.137Z,98008.77
2023-02-18T04:08:08.549Z,98000.37
2023-02-18T04:11:14.959Z,97992.52
2023-02-18T04:14:18.356Z,97985.16
2023-02-18T04:17:26.718Z,97974.39
2023-02-18T04:20:31.698Z,97971.73
2023-02-18T04:23:36.030Z,97954.20
2023-02-18T04:26:40.003Z,97954.60
2023-02-18T04:29:48.154Z,97943.11
2023-02-18T04:32:52.486Z,97941.65
2023-02-18T04:35:56.573Z,97932.85
2023-02-18T04:39:03.230Z,97923.23
2023-02-18T04:42:09.955Z,97921.38
2023-02-18T04:45:13.875Z,97916.17
2023-02-18T04:48:16.170Z,97914.37
2023-02-18T04:51:20.874Z,97908.40
2023-02-18T04:54:28.352Z,97904.34
2023-02-18T04:57:36.398Z,97895.36
2023-02-18T05:00:39.404Z,97890.27
2023-02-18T05:03:47.118Z,97888.71
2023-02-18T05:06:55.411Z,97892.38
2023-02-18T05:10:00.145Z,97883.35
2023-02-18T05:13:03.551Z,97871.25
2023-02-18T05:16:12.875Z,97858.92
2023-02-18T05:19:19.150Z,97843.23
2023-02-18T05:22:27.319Z,97851.24
2023-02-18T05:25:31.123Z,97853.34
2023-02-18T05:28:36.737Z,97851.16
2023-02-18T05:31:41.810Z,97843.10
2023-02-18T05:34:45.240Z,97853.04
2023-02-18T05:37:51.897Z,97848.02
2023-02-18T05:40:59.082Z,97838.77
2023-02-18T05:44:21.784Z,97843.71
2023-02-18T05:47:28.570Z,97833.29
2023-02-18T05:50:33.002Z,97833.21
2023-02-18T05:53:38.800Z,97826.80
2023-02-18T05:56:43.168Z,97823.16
2023-02-18T05:59:48.392Z,97816.33
2023-02-18T06:02:54.265Z,97806.17
2023-02-18T06:05:59.565Z,97807.36
2023-02-18T06:09:07.395Z,97806.12
2023-02-18T06:12:13.762Z,97808.98
2023-02-18T06:15:22.545Z,97804.01
2023-02-18T06:18:29.295Z,97802.48
2023-02-18T06:21:32.410Z,97798.73
2023-02-18T06:24:43.076Z,97792.80
2023-02-18T06:27:49.661Z,97788.11
2023-02-18T06:30:59.474Z,97792.98
2023-02-18T06:34:03.077Z,97795.13
2023-02-18T06:37:10.203Z,97798.63
2023-02-18T06:40:15.230Z,97794.09
2023-02-18T06:43:27.886Z,97795.95
2023-02-18T06:46:33.394Z,97790.23
2023-02-18T06:49:38.815Z,97791.65
2023-02-18T07:55:53.046Z,97864.73
2023-02-18T07:58:56.717Z,97829.12
2023-02-18T08:02:01.657Z,97833.98
2023-02-18T08:05:08.140Z,97829.38
2023-02-18T08:08:23.297Z,97826.35
2023-02-18T08:11:29.302Z,97822.59
2023-02-18T08:14:34.715Z,97811.02
2023-02-18T08:17:37.727Z,97808.14
2023-02-18T08:20:44.390Z,97810.70
2023-02-18T08:24:02.428Z,97815.27
2023-02-18T08:27:08.293Z,97820.30
2023-02-18T08:30:14.692Z,97827.55
2023-02-18T08:33:22.498Z,97821.30
2023-02-18T08:36:27.891Z,97828.63
2023-02-18T08:39:58.544Z,97823.31
2023-02-18T08:43:06.533Z,97835.02
2023-02-18T08:46:16.077Z,97834.48
2023-02-18T08:49:24.803Z,97837.25
2023-02-18T08:52:32.504Z,97827.85
2023-02-18T08:55:42.079Z,97835.46
2023-02-18T08:58:46.791Z,97838.65
2023-02-18T09:01:52.682Z,97835.80
2023-02-18T09:04:56.143Z,97835.13
2023-02-18T09:08:08.852Z,97836.04
2023-02-18T09:11:35.807Z,97852.88
2023-02-18T09:14:59.121Z,97837.55
2023-02-18T09:18:08.420Z,97848.83
2023-02-18T09:21:15.597Z,97841.34
2023-02-18T09:24:24.622Z,97846.77
2023-02-18T09:27:31.470Z,97843.15
2023-02-18T09:30:37.711Z,97851.59
2023-02-18T09:33:51.720Z,97854.40
2023-02-18T09:37:09.340Z,97861.34
2023-02-18T09:40:28.674Z,97858.97
2023-02-18T09:44:12.582Z,97859.09
2023-02-18T09:47:21.327Z,97857.48
2023-02-18T09:50:28.790Z,97864.09
2023-02-18T09:53:33.273Z,97853.34
2023-02-18T09:56:43.908Z,97852.13
2023-02-18T09:59:58.717Z,97867.66
2023-02-18T10:03:13.352Z,97858.14
2023-02-18T10:06:30.413Z,97871.29
2023-02-18T10:09:42.036Z,97844.63
2023-02-18T10:12:51.392Z,97851.69
2023-02-18T10:15:55.734Z,97854.89
2023-02-18T10:19:03.888Z,97876.23
2023-02-18T10:22:19.734Z,97880.22
2023-02-18T10:25:24.639Z,97849.42
2023-02-18T10:28:29.087Z,97862.09
2023-02-18T10:31:44.236Z,97898.38
2023-02-18T10:35:02.828Z,97855.36
2023-02-18T10:38:37.638Z,97840.19
2023-02-18T10:42:15.474Z,97880.22
2023-02-18T10:45:37.929Z,97847.93
2023-02-18T10:49:15.371Z,97864.83
2023-02-18T10:52:23.409Z,97855.02
2023-02-18T10:55:49.635Z,97846.60
2023-02-18T10:59:25.375Z,97830.41
2023-02-18T11:02:40.222Z,97852.34
2023-02-18T11:05:54.989Z,97830.48
2023-02-18T11:09:03.346Z,97840.88
2023-02-18T11:12:17.258Z,97824.70
2023-02-18T11:15:31.517Z,97839.41
2023-02-18T11:19:06.257Z,97843.10
2023-02-18T11:22:28.676Z,97836.16
2023-02-18T11:25:36.922Z,97841.70
2023-02-18T11:28:48.404Z,97856.77
2023-02-18T11:31:57.514Z,97874.48
2023-02-18T11:35:05.526Z,97858.52
2023-02-18T11:38:45.491Z,97851.01
2023-02-18T11:42:04.166Z,97843.13
2023-02-18T11:45:33.373Z,97851.40
2023-02-18T11:48:37.360Z,97857.73
2023-02-18T11:51:50.168Z,97844.94
2023-02-18T11:55:16.176Z,97836.79
2023-02-18T11:58:23.858Z,97827.30
2023-02-18T12:01:45.112Z,97832.45
2023-02-18T12:05:21.250Z,97834.59
2023-02-18T12:08:35.848Z,97841.02
2023-02-18T12:11:52.709Z,97838.02
2023-02-18T12:15:03.787Z,97837.46
2023-02-18T12:18:31.530Z,97840.00
2023-02-18T12:22:17.835Z,97831.39
2023-02-18T12:25:49.236Z,97862.03
2023-02-18T12:29:19.424Z,97863.23
2023-02-18T12:32:56.808Z,97857.36
2023-02-18T12:36:39.233Z,97847.82
2023-02-18T12:40:25.141Z,97854.99
2023-02-18T12:43:49.427Z,97852.44
2023-02-18T12:47:44.430Z,97887.21
2023-02-18T12:51:05.575Z,97906.90
2023-02-18T12:54:34.853Z,97881.09
2023-02-18T12:58:25.278Z,97883.83
2023-02-18T13:01:52.620Z,97881.48
2023-02-18T13:05:24.723Z,97863.85
2023-02-18T13:08:53.384Z,97877.48
2023-02-18T13:12:25.292Z,97878.47
2023-02-18T13:15:56.312Z,97873.02
2023-02-18T13:19:41.338Z,97898.51
2023-02-18T13:22:49.996Z,97876.41
2023-02-18T13:26:05.401Z,97883.35
2023-02-18T13:29:26.790Z,97921.70
2023-02-18T13:32:49.016Z,97900.71
2023-02-18T13:36:27.228Z,97888.80
2023-02-18T13:39:37.689Z,97888.02
2023-02-18T13:42:50.111Z,97911.52
2023-02-18T13:46:27.950Z,97965.76
2023-02-18T13:49:36.087Z,97925.58
2023-02-18T13:52:40.029Z,97927.77
2023-02-18T13:56:12.200Z,97917.30
2023-02-18T13:59:32.253Z,97902.98
2023-02-18T14:02:39.812Z,97923.23
2023-02-18T14:06:26.239Z,97915.39
2023-02-18T14:09:38.706Z,97922.71
2023-02-18T14:13:07.311Z,97921.31
2023-02-18T14:16:15.614Z,97923.85
2023-02-18T14:19:28.745Z,97917.93
2023-02-18T14:22:48.382Z,97923.59
2023-02-18T14:26:23.364Z,97935.39
2023-02-18T14:29:33.408Z,97948.77
2023-02-18T14:32:40.650Z,97939.94
2023-02-18T14:36:12.907Z,97931.48
2023-02-18T14:39:35.854Z,97939.80
2023-02-18T14:43:01.359Z,97942.55
2023-02-18T14:46:10.132Z,97941.39
2023-02-18T14:49:35.458Z,97940.58
2023-02-18T14:52:52.857Z,97946.88
2023-02-18T14:56:04.197Z,97952.52
2023-02-18T14:59:08.232Z,97951.25
2023-02-18T15:02:27.576Z,97949.16
2023-02-18T15:05:37.962Z,97945.64
2023-02-18T15:08:43.099Z,97944.02
2023-02-18T15:12:01.723Z,97955.02
2023-02-18T15:15:13.458Z,97944.86
2023-02-18T15:18:37.161Z,97935.48
2023-02-18T15:21:45.324Z,97932.88
2023-02-18T15:24:53.132Z,97941.34
2023-02-18T15:27:56.533Z,97942.71
2023-02-18T15:31:02.727Z,97945.58
2023-02-18T15:34:28.537Z,97947.60
2023-02-18T15:37:33.684Z,97944.41
2023-02-18T15:40:40.141Z,97953.52
2023-02-18T15:44:05.589Z,97952.99
2023-02-18T15:47:51.483Z,97955.89
2023-02-18T15:51:02.795Z,97946.51
2023-02-18T15:54:22.378Z,97954.16
2023-02-18T15:57:30.422Z,97959.05
2023-02-18T16:00:50.089Z,97960.16
2023-02-18T16:03:55.555Z,97965.70
2023-02-18T16:07:04.924Z,97964.56
2023-02-18T16:10:41.049Z,97959.90
2023-02-18T16:13:52.330Z,97968.61
2023-02-18T16:17:16.701Z,97974.20
2023-02-18T16:20:34.950Z,97965.04
2023-02-18T16:23:59.584Z,97974.57
2023-02-18T16:27:08.330Z,97975.13
2023-02-18T16:30:17.409Z,97995.75
2023-02-18T16:33:19.851Z,97974.29
2023-02-18T16:36:25.095Z,97979.14
2023-02-18T16:39:54.515Z,97980.98
2023-02-18T16:43:00.482Z,97996.73
2023-02-18T16:46:20.051Z,97986.39
2023-02-18T16:49:30.533Z,97981.23
2023-02-18T16:52:32.925Z,97979.12
2023-02-18T16:55:35.809Z,97980.81
2023-02-18T16:58:39.171Z,97983.88
2023-02-18T17:01:44.342Z,97980.30
2023-02-18T17:04:48.492Z,97997.52
2023-02-18T17:07:59.234Z,97985.62
2023-02-18T17:11:20.598Z,97980.96
2023-02-18T17:14:26.710Z,97994.65
2023-02-18T17:17:30.730Z,97982.67
2023-02-18T17:20:50.287Z,97991.05
2023-02-18T17:23:55.072Z,97985.66
2023-02-18T17:26:59.060Z,97990.58
2023-02-18T17:30:01.540Z,97987.84
2023-02-18T17:33:14.500Z,97988.84
2023-02-18T17:36:17.057Z,97995.48
2023-02-18T17:39:21.093Z,98000.15
2023-02-18T17:42:23.160Z,97985.21
2023-02-18T17:45:40.100Z,97995.77
2023-02-18T17:48:46.471Z,97981.27
2023-02-18T17:51:50.229Z,97983.11
2023-02-18T17:54:53.393Z,97985.58
2023-02-18T17:57:57.701Z,97990.86
2023-02-18T18:01:02.746Z,97991.49
2023-02-18T18:04:14.697Z,97987.81
2023-02-18T18:07:18.090Z,97990.59
2023-02-18T18:10:36.662Z,97987.20
2023-02-18T18:13:40.381Z,97994.42
2023-02-18T18:16:44.284Z,97992.70
2023-02-18T18:19:47.171Z,97996.25
2023-02-18T18:22:51.994Z,97987.27
2023-02-18T18:25:59.237Z,97991.80
2023-02-18T18:29:02.032Z,97987.05
2023-02-18T18:32:06.380Z,97995.13
2023-02-18T18:35:34.688Z,97989.26
2023-02-18T18:38:43.600Z,97992.95
2023-02-18T18:41:47.278Z,97998.99
2023-02-18T18:44:50.163Z,97998.98
2023-02-18T18:47:54.294Z,97990.55
2023-02-18T18:50:59.279Z,97993.60
2023-02-18T18:54:03.244Z,97995.59
2023-02-18T18:57:06.637Z,98001.91
2023-02-18T19:00:10.315Z,97998.18
2023-02-18T19:03:15.023Z,97994.00
2023-02-18T19:06:21.255Z,98006.49
2023-02-18T19:09:31.926Z,97996.93
2023-02-18T19:12:36.567Z,97994.89
2023-02-18T19:15:45.238Z,97985.44
2023-02-18T19:18:55.414Z,97985.58
2023-02-18T19:22:04.594Z,97986.61
2023-02-18T19:25:10.288Z,97995.94
2023-02-18T19:28:14.292Z,97994.57
2023-02-18T19:31:17.346Z,97990.16
2023-02-18T19:34:25.102Z,97978.59
2023-02-18T19:37:46.136Z,97975.97
2023-02-18T19:41:50.492Z,97979.91
2023-02-18T19:45:01.230Z,97992.71
2023-02-18T19:48:11.478Z,97990.21
2023-02-18T19:51:17.612Z,97985.48
2023-02-18T20:06:22.578Z,97979.88
2023-02-18T20:09:27.052Z,97975.55
2023-02-18T20:12:35.226Z,97965.12
2023-02-18T20:15:40.448Z,97972.84
2023-02-18T20:18:43.767Z,97975.48
2023-02-18T20:21:49.804Z,97975.86
2023-02-18T20:24:53.436Z,97973.02
2023-02-18T20:28:02.194Z,97968.88
2023-02-18T20:31:12.784Z,97974.29
2023-02-18T20:34:17.709Z,97970.40
2023-02-18T20:37:20.762Z,97965.55
2023-02-18T20:40:27.120Z,97966.21
2023-02-18T20:43:32.610Z,97972.34
2023-02-18T20:46:39.086Z,97961.63
2023-02-18T20:49:42.310Z,97959.41
2023-02-18T20:52:46.809Z,97959.32
2023-02-18T20:55:50.700Z,97962.60
2023-02-18T20:58:55.239Z,97967.11
2023-02-18T21:01:57.272Z,97964.43
2023-02-18T21:05:00.489Z,97967.52
2023-02-18T21:08:05.405Z,97966.73
2023-02-18T21:11:11.464Z,97964.14
2023-02-18T21:14:14.263Z,97953.88
2023-02-18T21:17:16.734Z,97952.67
2023-02-18T21:20:19.961Z,97952.96
2023-02-18T21:23:25.396Z,97960.75
2023-02-18T21:26:28.779Z,97962.88
2023-02-18T21:29:36.856Z,97961.41
2023-02-18T21:32:40.497Z,97966.72
2023-02-18T21:35:42.717Z,97960.27
2023-02-18T21:38:51.494Z,97960.73
2023-02-18T21:41:56.735Z,97958.16
2023-02-18T21:45:00.898Z,97971.73
2023-02-18T21:48:59.558Z,97975.38
2023-02-18T21:52:08.256Z,97979.59
2023-02-18T21:55:11.290Z,97986.39
2023-02-18T21:58:16.395Z,97985.92
2023-02-18T22:01:19.336Z,97991.37
2023-02-18T22:04:23.350Z,97993.80
2023-02-18T22:07:29.582Z,97987.27
2023-02-18T22:10:33.359Z,97980.89
2023-02-18T22:13:40.583Z,97986.04
2023-02-18T22:16:43.070Z,97988.37
2023-02-18T22:19:49.567Z,97993.83
2023-02-18T22:22:54.863Z,98005.36
2023-02-18T22:26:07.337Z,98003.09
2023-02-18T22:29:11.440Z,98003.85
2023-02-18T22:32:17.137Z,98002.80
2023-02-18T22:35:19.919Z,97999.09
2023-02-18T22:38:23.317Z,97997.42
2023-02-18T22:41:30.746Z,98000.70
2023-02-18T22:44:34.618Z,98007.28
2023-02-18T22:47:42.421Z,98006.92
2023-02-18T22:50:44.528Z,98003.52
2023-02-18T22:53:55.480Z,98006.83
2023-02-18T22:56:59.767Z,98008.34
2023-02-18T23:00:03.499Z,98020.44
2023-02-18T23:03:06.602Z,98022.67
2023-02-18T23:06:10.679Z,98007.25
2023-02-18T23:09:20.924Z,98011.95
2023-02-18T23:12:24.170Z,98025.14
2023-02-18T23:15:27.631Z,98021.98
2023-02-18T23:18:31.780Z,98021.69
2023-02-18T23:21:37.630Z,98015.52
2023-02-18T23:24:43.364Z,98016.75
2023-02-18T23:27:45.677Z,98021.27
2023-02-18T23:30:48.210Z,98019.79
2023-02-18T23:33:56.953Z,98016.27
2023-02-18T23:36:58.937Z,98024.55
2023-02-18T23:40:02.748Z,98022.63
2023-02-18T23:43:06.972Z,98029.65
2023-02-18T23:46:09.604Z,98030.34
2023-02-18T23:49:15.179Z,98032.04
2023-02-18T23:52:21.602Z,98030.02
2023-02-18T23:55:26.279Z,98039.20
2023-02-18T23:58:29.911Z,98040.08
